Time;durP1;ratioP1;P1;durP2;ratioP2;P2;SDS_P1;SDS_P2;PMS_P1;PMS_P2;Temp;Humidity;BMP_temperature;BMP_pressure;BME280_temperature;BME280_humidity;BME280_pressure;Samples;Min_cycle;Max_cycle;Signal;HPM_P1;HPM_P2
2022/11/27 00:01:13;;;;;;;12.80;6.30;;;5.90;99.90;;;6.56;100.00;99276.25;4973091;28;20562;-82
2022/11/27 00:03:42;;;;;;;18.60;6.33;;;6.00;99.90;;;6.57;100.00;99270.13;4965709;28;20504;-82
2022/11/27 00:06:16;;;;;;;14.33;6.40;;;6.00;99.90;;;6.57;100.00;99266.69;4966275;28;20529;-83
2022/11/27 00:08:46;;;;;;;13.47;5.90;;;6.00;99.90;;;6.55;100.00;99263.41;4972189;28;20563;-82
2022/11/27 00:11:18;;;;;;;20.37;6.10;;;5.90;99.90;;;6.56;100.00;99263.25;4976245;28;20469;-82
2022/11/27 00:13:48;;;;;;;12.80;6.13;;;6.00;99.90;;;6.56;100.00;99255.47;4975808;28;20471;-82
2022/11/27 00:16:19;;;;;;;10.87;5.70;;;5.90;99.90;;;6.56;100.00;99259.84;4975107;28;20467;-82
2022/11/27 00:18:49;;;;;;;15.90;6.57;;;5.90;99.90;;;6.55;100.00;99256.44;4974536;28;20888;-82
2022/11/27 00:21:22;;;;;;;9.67;5.53;;;5.90;99.90;;;6.59;100.00;99255.19;4974200;28;21022;-83
2022/11/27 00:23:54;;;;;;;16.30;5.90;;;6.00;99.90;;;6.58;100.00;99260.53;4974727;28;21028;-83
2022/11/27 00:26:24;;;;;;;13.33;5.50;;;6.00;99.90;;;6.55;100.00;99259.03;4975071;28;21016;-82
2022/11/27 00:28:53;;;;;;;15.50;6.10;;;6.00;99.90;;;6.54;100.00;99246.16;4973815;28;20459;-83
2022/11/27 00:31:27;;;;;;;11.03;5.70;;;6.00;99.90;;;6.56;100.00;99244.25;4976232;28;20468;-82
2022/11/27 00:33:59;;;;;;;11.50;6.37;;;6.00;99.90;;;6.53;100.00;99245.34;4974030;28;20486;-83
2022/11/27 00:36:32;;;;;;;23.30;6.40;;;5.90;99.90;;;6.52;100.00;99243.72;4973170;28;20497;-82
2022/11/27 00:39:01;;;;;;;9.43;5.90;;;5.90;99.90;;;6.51;100.00;99247.25;4974218;28;20456;-82
2022/11/27 00:41:31;;;;;;;11.47;6.30;;;6.00;99.90;;;6.52;100.00;99251.50;4979967;28;21017;-83
2022/11/27 00:43:59;;;;;;;10.63;5.33;;;6.00;99.90;;;6.48;100.00;99250.13;4975464;28;20500;-83
2022/11/27 00:46:31;;;;;;;8.97;5.10;;;6.00;99.90;;;6.47;100.00;99245.03;4977827;28;20543;-83
2022/11/27 00:49:02;;;;;;;7.90;5.10;;;6.00;99.90;;;6.46;100.00;99246.81;4976168;28;20472;-83
2022/11/27 00:51:33;;;;;;;9.20;5.17;;;6.00;99.90;;;6.39;100.00;99253.50;4975352;28;20474;-83
2022/11/27 00:54:03;;;;;;;10.00;4.83;;;5.70;99.90;;;6.37;100.00;99250.22;4975422;28;20456;-83
2022/11/27 00:56:36;;;;;;;7.67;4.87;;;5.70;99.90;;;6.33;100.00;99258.38;4974195;28;20538;-82
2022/11/27 00:59:07;;;;;;;9.40;4.90;;;5.70;99.90;;;6.30;100.00;99258.66;4977943;28;20497;-83
2022/11/27 01:01:40;;;;;;;13.60;5.53;;;5.60;99.90;;;6.28;100.00;99250.19;4978167;28;20583;-83
2022/11/27 01:04:15;;;;;;;6.03;3.63;;;5.60;99.90;;;6.26;100.00;99247.69;4975542;28;20556;-83
2022/11/27 01:06:45;;;;;;;6.70;4.40;;;5.60;99.90;;;6.27;100.00;99246.75;4977641;28;20578;-82
2022/11/27 01:09:15;;;;;;;8.67;5.13;;;5.60;99.90;;;6.22;100.00;99251.50;4976896;28;20571;-82
2022/11/27 01:11:45;;;;;;;12.40;4.83;;;5.50;99.90;;;6.24;100.00;99247.03;4974264;28;20526;-82
2022/11/27 01:14:17;;;;;;;7.17;5.10;;;5.60;99.90;;;6.24;100.00;99248.78;4970447;28;20528;-83
2022/11/27 01:16:47;;;;;;;11.50;4.93;;;5.60;99.90;;;6.27;100.00;99241.56;4972816;28;20516;-82
2022/11/27 01:19:16;;;;;;;21.30;5.20;;;5.70;99.90;;;6.27;100.00;99238.97;4971759;28;20489;-83
2022/11/27 01:21:47;;;;;;;13.20;4.63;;;5.70;99.90;;;6.27;100.00;99241.56;4971002;28;20563;-82
2022/11/27 01:24:17;;;;;;;9.43;4.90;;;5.60;99.90;;;6.25;100.00;99243.44;4969019;28;20495;-83
2022/11/27 01:26:47;;;;;;;8.83;4.60;;;5.60;99.90;;;6.26;100.00;99239.91;4971798;28;20529;-83
2022/11/27 01:29:15;;;;;;;11.30;4.70;;;5.60;99.90;;;6.28;100.00;99229.41;4969149;28;20550;-82
2022/11/27 01:31:44;;;;;;;6.47;4.33;;;5.70;99.90;;;6.27;100.00;99238.13;4972417;28;20496;-82
2022/11/27 01:34:16;;;;;;;6.50;4.23;;;5.80;99.90;;;6.26;100.00;99226.09;4974220;28;20476;-83
2022/11/27 01:36:47;;;;;;;5.50;4.07;;;5.70;99.90;;;6.26;100.00;99236.47;4972284;28;20492;-82
2022/11/27 01:39:18;;;;;;;7.70;4.57;;;5.70;99.90;;;6.28;100.00;99245.00;4978585;28;20608;-82
2022/11/27 01:41:49;;;;;;;8.20;4.00;;;5.70;99.90;;;6.27;100.00;99228.56;4973930;28;20475;-83
2022/11/27 01:44:49;;;;;;;8.57;4.23;;;5.70;99.90;;;6.25;100.00;99240.84;4973831;28;21319;-82
2022/11/27 01:47:43;;;;;;;7.73;4.10;;;5.80;99.90;;;6.22;100.00;99235.09;4977534;28;20817;-82
2022/11/27 01:50:24;;;;;;;11.70;6.60;;;5.70;99.90;;;6.22;100.00;99235.09;4972289;28;20481;-82
2022/11/27 01:53:02;;;;;;;13.40;3.90;;;5.70;99.90;;;6.21;100.00;99228.28;4981595;28;20522;-82
2022/11/27 01:55:37;;;;;;;6.40;4.40;;;5.70;99.90;;;6.17;100.00;99232.91;4968849;28;20471;-82
2022/11/27 01:58:12;;;;;;;14.93;4.87;;;5.70;99.90;;;6.16;100.00;99228.66;4975326;28;20502;-82
2022/11/27 02:00:41;;;;;;;9.10;4.53;;;5.70;99.90;;;6.15;100.00;99232.19;4976580;28;20453;-83
2022/11/27 02:03:11;;;;;;;7.60;5.10;;;5.70;99.90;;;6.15;100.00;99228.78;4972633;28;20470;-82
2022/11/27 02:05:41;;;;;;;14.30;5.70;;;5.70;99.90;;;6.14;100.00;99221.97;4975135;28;20481;-82
2022/11/27 02:08:16;;;;;;;9.43;5.67;;;5.70;99.90;;;6.11;100.00;99217.81;4970381;28;21037;-82
2022/11/27 02:10:53;;;;;;;9.70;4.70;;;5.60;99.90;;;6.12;100.00;99213.47;4970105;28;20832;-82
2022/11/27 02:13:32;;;;;;;8.50;4.63;;;5.70;99.90;;;6.11;100.00;99196.25;4974005;28;20470;-83
2022/11/27 02:16:16;;;;;;;8.97;4.87;;;5.70;99.90;;;6.10;100.00;99200.63;4969327;28;20467;-83
2022/11/27 02:18:57;;;;;;;8.80;5.37;;;5.70;99.90;;;6.10;100.00;99205.00;4972158;28;20460;-82
2022/11/27 02:21:37;;;;;;;11.20;5.13;;;5.70;99.90;;;6.05;100.00;99193.22;4975003;28;20958;-82
2022/11/27 02:24:43;;;;;;;7.80;4.77;;;5.70;99.90;;;6.07;100.00;99200.88;4971555;28;20893;-83
2022/11/27 02:27:50;;;;;;;10.53;5.43;;;5.60;99.90;;;6.04;100.00;99201.13;4975136;28;20461;-82
2022/11/27 02:30:22;;;;;;;8.57;4.50;;;5.50;99.90;;;6.07;100.00;99206.88;4970093;28;20555;-82
2022/11/27 02:32:59;;;;;;;8.50;4.60;;;5.50;99.90;;;6.07;100.00;99190.50;4971705;28;20994;-83
2022/11/27 02:35:37;;;;;;;8.73;4.17;;;5.50;99.90;;;6.09;100.00;99188.59;4973067;28;20514;-82
2022/11/27 02:38:13;;;;;;;13.70;5.40;;;5.60;99.90;;;6.07;100.00;99180.91;4971767;28;20591;-82
2022/11/27 02:40:54;;;;;;;14.53;4.77;;;5.60;99.90;;;6.04;100.00;99178.59;4971538;28;20471;-82
2022/11/27 02:43:32;;;;;;;11.50;5.40;;;5.50;99.90;;;5.99;100.00;99187.72;4974268;28;20997;-83
2022/11/27 02:46:06;;;;;;;13.43;4.67;;;5.40;99.90;;;5.97;100.00;99176.66;4971757;28;20484;-83
2022/11/27 02:48:43;;;;;;;5.83;4.30;;;5.30;99.90;;;5.97;100.00;99179.25;4972301;28;21363;-83
2022/11/27 02:51:15;;;;;;;7.87;4.67;;;5.30;99.90;;;5.99;100.00;99162.59;4971394;28;20469;-83
2022/11/27 02:53:58;;;;;;;9.17;4.63;;;5.30;99.90;;;6.02;100.00;99161.50;4968036;28;20841;-83
2022/11/27 02:56:31;;;;;;;9.43;4.63;;;5.30;99.90;;;6.04;100.00;99160.41;4967778;28;20471;-82
2022/11/27 02:59:05;;;;;;;8.33;4.80;;;5.30;99.90;;;6.04;100.00;99162.19;4970936;28;20466;-82
2022/11/27 03:01:42;;;;;;;7.23;4.60;;;5.30;99.90;;;6.03;100.00;99158.78;4970760;28;20537;-83
2022/11/27 03:04:19;;;;;;;7.90;3.87;;;5.30;99.90;;;6.06;100.00;99160.28;4970984;28;20483;-82
2022/11/27 03:06:56;;;;;;;9.13;3.80;;;5.40;99.90;;;6.05;100.00;99154.28;4970338;28;20531;-82
2022/11/27 03:09:33;;;;;;;9.40;5.23;;;5.30;99.90;;;6.03;100.00;99144.97;4972131;28;20479;-83
2022/11/27 03:12:07;;;;;;;11.67;4.50;;;5.30;99.90;;;6.01;100.00;99139.06;4966780;28;20486;-82
2022/11/27 03:14:42;;;;;;;6.80;4.47;;;5.30;99.90;;;5.98;100.00;99134.97;4974600;28;20475;-82
2022/11/27 03:17:35;;;;;;;8.27;4.50;;;5.20;99.90;;;6.02;100.00;99125.97;4972688;28;20472;-82
2022/11/27 03:20:14;;;;;;;10.83;3.83;;;5.30;99.90;;;6.04;100.00;99128.44;4972193;28;21222;-84
2022/11/27 03:22:44;;;;;;;12.53;4.90;;;5.30;99.90;;;6.06;100.00;99131.72;4972239;28;20468;-83
2022/11/27 03:25:15;;;;;;;13.50;4.10;;;5.40;99.90;;;6.06;100.00;99124.78;4969149;28;20534;-82
2022/11/27 03:27:50;;;;;;;5.90;4.10;;;5.30;99.90;;;6.07;100.00;99128.19;4976984;28;20961;-83
2022/11/27 03:30:19;;;;;;;10.23;4.73;;;5.40;99.90;;;6.08;100.00;99114.22;4972711;28;20504;-82
2022/11/27 03:32:51;;;;;;;10.00;4.70;;;5.40;99.90;;;6.09;100.00;99118.47;4972654;28;20466;-83
2022/11/27 03:35:24;;;;;;;13.80;4.87;;;5.50;99.90;;;6.07;100.00;99117.81;4974656;28;20479;-82
2022/11/27 03:37:54;;;;;;;7.97;4.03;;;5.50;99.90;;;6.05;100.00;99117.09;4973186;28;20473;-83
2022/11/27 03:40:32;;;;;;;8.60;4.43;;;5.30;99.90;;;6.04;100.00;99116.28;4976004;28;20525;-81
2022/11/27 03:43:11;;;;;;;7.37;4.83;;;5.30;99.90;;;6.03;100.00;99121.63;4973040;28;20890;-82
2022/11/27 03:45:57;;;;;;;6.97;4.33;;;5.30;99.90;;;6.05;100.00;99114.50;4974842;28;20582;-83
2022/11/27 03:48:38;;;;;;;9.23;5.00;;;5.30;99.90;;;6.08;100.00;99124.63;4972233;28;20468;-82
2022/11/27 03:51:21;;;;;;;11.77;4.27;;;5.40;99.90;;;6.07;100.00;99112.63;4976673;28;20488;-83
2022/11/27 03:54:00;;;;;;;6.03;4.30;;;5.40;99.90;;;6.08;100.00;99114.22;4976434;28;20499;-83
2022/11/27 03:56:39;;;;;;;15.30;4.43;;;5.50;99.90;;;6.08;100.00;99114.22;4975533;28;20500;-83
2022/11/27 03:59:16;;;;;;;4.87;3.50;;;5.50;99.90;;;6.08;100.00;99114.22;4975850;28;20897;-82
2022/11/27 04:01:46;;;;;;;6.43;4.40;;;5.60;99.90;;;6.07;100.00;99107.41;4974712;28;20496;-83
2022/11/27 04:04:17;;;;;;;15.20;4.17;;;5.60;99.90;;;6.05;100.00;99094.56;4978702;28;20470;-83
2022/11/27 04:06:47;;;;;;;7.37;3.67;;;5.60;99.90;;;6.03;100.00;99086.09;4975876;28;20492;-83
2022/11/27 04:09:17;;;;;;;10.90;5.00;;;5.50;99.90;;;6.04;100.00;99098.09;4977727;28;20963;-82
2022/11/27 04:11:46;;;;;;;8.70;4.93;;;5.50;99.90;;;6.03;100.00;99090.47;4977504;28;20963;-82
2022/11/27 04:14:17;;;;;;;12.60;5.37;;;5.50;99.90;;;6.02;100.00;99083.63;4977969;28;20468;-83
2022/11/27 04:16:47;;;;;;;13.23;4.73;;;5.40;99.90;;;6.02;100.00;99089.63;4974840;28;20560;-82
2022/11/27 04:19:18;;;;;;;11.27;5.17;;;5.40;99.90;;;5.97;100.00;99094.38;4974264;28;20921;-83
2022/11/27 04:21:48;;;;;;;9.50;4.27;;;5.30;99.90;;;5.97;100.00;99103.97;4975582;28;20469;-82
2022/11/27 04:24:18;;;;;;;11.83;4.90;;;5.30;99.90;;;5.97;100.00;99098.78;4976038;28;20492;-83
2022/11/27 04:26:48;;;;;;;7.57;4.40;;;5.30;99.90;;;5.96;100.00;99099.72;4971750;28;20500;-83
2022/11/27 04:29:18;;;;;;;8.33;4.60;;;5.30;99.90;;;5.94;100.00;99089.47;4973782;28;20468;-82
2022/11/27 04:31:48;;;;;;;9.50;4.80;;;5.30;99.90;;;5.94;100.00;99092.06;4972197;28;20476;-82
2022/11/27 04:34:20;;;;;;;8.23;4.60;;;5.30;99.90;;;5.97;100.00;99096.97;4975085;28;20460;-82
2022/11/27 04:36:50;;;;;;;9.60;5.07;;;5.30;99.90;;;5.99;100.00;99100.28;4974987;28;20557;-82
2022/11/27 04:39:20;;;;;;;10.17;4.87;;;5.40;99.90;;;5.98;100.00;99103.84;4975886;28;20457;-82
2022/11/27 04:41:50;;;;;;;7.27;4.50;;;5.30;99.90;;;5.98;100.00;99108.19;4972142;28;20461;-83
2022/11/27 04:44:21;;;;;;;12.50;5.37;;;5.30;99.90;;;5.99;100.00;99109.84;4972548;28;20466;-82
2022/11/27 04:46:50;;;;;;;11.53;5.40;;;5.40;99.90;;;5.99;100.00;99109.84;4972426;28;20503;-82
2022/11/27 04:49:21;;;;;;;7.97;4.73;;;5.40;99.90;;;5.98;100.00;99101.22;4976226;28;20610;-81
2022/11/27 04:51:51;;;;;;;9.37;5.20;;;5.40;99.90;;;5.97;100.00;99096.97;4969177;28;20475;-83
2022/11/27 04:54:21;;;;;;;15.03;4.60;;;5.40;99.90;;;5.98;100.00;99097.81;4976162;28;20468;-83
2022/11/27 04:56:50;;;;;;;7.80;4.13;;;5.30;99.90;;;5.96;100.00;99095.38;4978775;28;20461;-83
2022/11/27 04:59:19;;;;;;;7.37;4.60;;;5.30;99.90;;;5.96;100.00;99104.91;4975434;28;20460;-82
2022/11/27 05:01:48;;;;;;;12.23;4.97;;;5.30;99.90;;;5.96;100.00;99097.13;4973194;28;20492;-83
2022/11/27 05:04:17;;;;;;;12.60;4.60;;;5.30;99.90;;;5.94;100.00;99092.06;4969439;28;20479;-82
2022/11/27 05:06:47;;;;;;;23.23;5.77;;;5.30;99.90;;;5.93;100.00;99084.44;4976451;28;20496;-83
2022/11/27 05:09:17;;;;;;;9.83;5.47;;;5.30;99.90;;;5.94;100.00;99075.66;4976178;28;20476;-83
2022/11/27 05:11:46;;;;;;;9.37;5.57;;;5.30;99.90;;;5.90;100.00;99069.13;4974849;28;20551;-83
2022/11/27 05:14:17;;;;;;;6.60;4.77;;;5.30;99.90;;;5.92;100.00;99069.78;4971839;28;20840;-83
2022/11/27 05:16:48;;;;;;;11.80;5.80;;;5.30;99.90;;;5.93;100.00;99074.03;4969429;28;21325;-82
2022/11/27 05:19:20;;;;;;;10.00;4.90;;;5.40;99.90;;;5.91;100.00;99076.75;4974518;28;20461;-82
2022/11/27 05:21:52;;;;;;;7.00;4.60;;;5.40;99.90;;;5.91;100.00;99076.75;4974530;28;20519;-83
2022/11/27 05:24:23;;;;;;;9.50;5.10;;;5.40;99.90;;;5.91;100.00;99068.16;4973627;28;20466;-82
2022/11/27 05:26:52;;;;;;;10.20;4.30;;;5.40;99.90;;;5.90;100.00;99063.94;4973427;28;20495;-83
2022/11/27 05:29:22;;;;;;;11.53;4.57;;;5.40;99.90;;;5.85;100.00;99060.88;4971822;28;20472;-83
2022/11/27 05:31:52;;;;;;;8.80;4.60;;;5.30;99.90;;;5.79;100.00;99056.22;4972357;28;20465;-83
2022/11/27 05:34:22;;;;;;;11.80;5.47;;;5.20;99.90;;;5.81;100.00;99059.47;4975015;28;20463;-82
2022/11/27 05:36:53;;;;;;;18.37;5.70;;;5.20;99.90;;;5.82;100.00;99053.34;4974318;28;20463;-83
2022/11/27 05:39:23;;;;;;;8.70;5.07;;;5.20;99.90;;;5.81;100.00;99049.09;4970437;28;20489;-82
2022/11/27 05:41:52;;;;;;;8.53;4.40;;;5.10;99.90;;;5.82;100.00;99050.75;4977944;28;20491;-83
2022/11/27 05:44:21;;;;;;;11.20;5.37;;;5.10;99.90;;;5.84;100.00;99054.03;4972813;28;21001;-82
2022/11/27 05:46:50;;;;;;;14.00;5.30;;;5.20;99.90;;;5.84;100.00;99056.63;4976692;28;20531;-82
2022/11/27 05:49:20;;;;;;;9.40;4.50;;;5.30;99.90;;;5.82;100.00;99043.78;4977341;28;20971;-83
2022/11/27 05:51:49;;;;;;;7.97;4.93;;;5.30;99.90;;;5.82;100.00;99041.19;4978475;28;20460;-83
2022/11/27 05:54:21;;;;;;;6.77;4.73;;;5.30;99.90;;;5.82;100.00;99053.34;4976670;28;20468;-82
2022/11/27 05:56:50;;;;;;;8.70;4.50;;;5.20;99.90;;;5.85;100.00;99040.09;4973933;28;20560;-83
2022/11/27 05:59:19;;;;;;;7.43;4.50;;;5.30;99.90;;;5.79;100.00;99028.50;4972143;28;20470;-83
2022/11/27 06:01:49;;;;;;;6.97;4.33;;;5.20;99.90;;;5.81;100.00;99033.53;4973800;28;20603;-83
2022/11/27 06:04:19;;;;;;;8.77;4.70;;;5.30;99.90;;;5.79;100.00;99030.25;4975811;28;20479;-83
2022/11/27 06:06:48;;;;;;;9.03;4.60;;;5.20;99.90;;;5.78;100.00;99028.59;4971024;28;20491;-82
2022/11/27 06:09:18;;;;;;;12.13;5.30;;;5.30;99.90;;;5.76;100.00;99031.31;4973865;28;20576;-82
2022/11/27 06:11:48;;;;;;;6.30;4.47;;;5.20;99.90;;;5.77;100.00;99024.34;4972083;28;20476;-83
2022/11/27 06:14:18;;;;;;;8.20;5.00;;;5.20;99.90;;;5.76;100.00;99014.97;4973191;28;20507;-83
2022/11/27 06:16:47;;;;;;;6.70;4.30;;;5.20;99.90;;;5.76;100.00;99015.75;4969510;28;20500;-82
2022/11/27 06:19:17;;;;;;;7.87;5.17;;;5.20;99.90;;;5.76;100.00;99009.78;4970630;28;20480;-82
2022/11/27 06:21:47;;;;;;;8.67;4.43;;;5.10;99.90;;;5.74;100.00;99004.69;4971008;28;20787;-83
2022/11/27 06:24:16;;;;;;;9.33;5.17;;;5.20;99.90;;;5.75;100.00;98998.56;4971300;28;20472;-83
2022/11/27 06:26:45;;;;;;;6.77;4.77;;;5.20;99.90;;;5.75;100.00;99005.53;4972941;28;20505;-82
2022/11/27 06:29:15;;;;;;;9.83;4.73;;;5.10;99.90;;;5.77;100.00;99003.59;4971257;28;20556;-83
2022/11/27 06:31:45;;;;;;;6.80;4.60;;;5.10;99.90;;;5.78;100.00;99007.84;4970383;28;20475;-82
2022/11/27 06:34:16;;;;;;;9.30;5.40;;;5.20;99.90;;;5.77;100.00;99011.38;4972435;28;20610;-82
2022/11/27 06:36:46;;;;;;;6.67;4.17;;;5.30;99.90;;;5.75;100.00;99014.13;4974736;28;20539;-82
2022/11/27 06:39:16;;;;;;;7.00;4.27;;;5.20;99.90;;;5.74;100.00;99014.25;4969682;28;20472;-83
2022/11/27 06:41:45;;;;;;;10.70;5.67;;;5.10;99.90;;;5.73;100.00;99010.81;4969911;28;20472;-83
2022/11/27 06:44:16;;;;;;;12.40;5.20;;;5.10;99.90;;;5.71;100.00;99002.38;4973094;28;20477;-83
2022/11/27 06:46:45;;;;;;;11.70;5.23;;;5.00;99.90;;;5.70;100.00;98999.91;4973371;28;20481;-83
2022/11/27 06:49:15;;;;;;;6.33;4.37;;;5.00;99.90;;;5.69;100.00;99001.69;4974156;28;20467;-83
2022/11/27 06:51:44;;;;;;;7.97;4.20;;;4.90;99.90;;;5.70;100.00;99016.28;4973696;28;21026;-83
2022/11/27 06:54:13;;;;;;;5.90;4.30;;;5.00;99.90;;;5.71;100.00;99024.91;4968733;28;20535;-83
2022/11/27 06:56:42;;;;;;;6.43;4.47;;;5.00;99.90;;;5.59;100.00;99025.00;4972080;28;20465;-83
2022/11/27 06:59:14;;;;;;;6.90;4.67;;;5.00;99.90;;;5.61;100.00;99011.06;4975286;28;20464;-83
2022/11/27 07:01:46;;;;;;;8.47;5.03;;;4.90;99.90;;;5.57;100.00;99000.97;4975938;28;21505;-82
2022/11/27 07:04:16;;;;;;;7.60;4.97;;;5.00;99.90;;;5.52;100.00;98995.34;4973364;28;20465;-83
2022/11/27 07:06:45;;;;;;;8.50;3.70;;;4.80;99.90;;;5.49;100.00;98999.97;4977195;28;20495;-83
2022/11/27 07:09:14;;;;;;;8.50;4.77;;;4.80;99.90;;;5.53;100.00;98999.59;4975646;28;20836;-82
2022/11/27 07:11:43;;;;;;;7.90;5.47;;;4.90;99.90;;;5.59;100.00;98996.47;4980641;28;20476;-83
2022/11/27 07:14:12;;;;;;;7.90;4.93;;;5.00;99.90;;;5.65;100.00;99000.31;4971909;28;21208;-83
2022/11/27 07:16:44;;;;;;;6.97;4.43;;;5.00;99.90;;;5.67;100.00;99000.16;4970927;28;20514;-81
2022/11/27 07:19:14;;;;;;;7.80;4.47;;;4.90;99.90;;;5.67;100.00;98980.22;4977067;28;20475;-82
2022/11/27 07:21:44;;;;;;;9.70;4.50;;;4.90;99.90;;;5.70;100.00;98972.19;4969666;28;20468;-84
2022/11/27 07:24:14;;;;;;;7.60;5.40;;;4.90;99.90;;;5.72;100.00;98972.06;4974495;28;20480;-83
2022/11/27 07:26:45;;;;;;;6.73;4.30;;;5.00;99.90;;;5.72;100.00;98964.28;4971982;28;20491;-82
2022/11/27 07:29:15;;;;;;;10.07;5.80;;;5.00;99.90;;;5.75;100.00;98961.41;4975696;28;20472;-83
2022/11/27 07:31:50;;;;;;;7.37;5.20;;;5.00;99.90;;;5.78;100.00;98968.94;4973672;28;20908;-82
2022/11/27 07:34:20;;;;;;;10.73;5.43;;;5.10;99.90;;;5.74;100.00;98962.34;4974402;28;21231;-83
2022/11/27 07:36:51;;;;;;;7.90;4.80;;;5.00;99.90;;;5.72;100.00;98966.88;4969373;28;20459;-83
2022/11/27 07:39:20;;;;;;;7.50;5.20;;;5.00;99.90;;;5.75;100.00;98974.38;4974958;28;20473;-82
2022/11/27 07:42:11;;;;;;;10.00;5.07;;;5.00;99.90;;;5.77;100.00;98975.06;4973293;28;20463;-83
2022/11/27 07:45:00;;;;;;;8.40;5.30;;;5.10;99.90;;;5.77;100.00;98965.50;4975162;28;20904;-84
2022/11/27 07:47:32;;;;;;;7.33;5.10;;;5.10;99.90;;;5.79;100.00;98965.38;4975349;28;20620;-82
2022/11/27 07:50:02;;;;;;;12.90;5.43;;;5.10;99.90;;;5.77;100.00;98969.88;4972159;28;21262;-82
2022/11/27 07:52:31;;;;;;;9.47;4.97;;;5.00;99.90;;;5.75;100.00;98964.00;4978966;28;20881;-83
2022/11/27 07:55:10;;;;;;;9.43;5.37;;;5.00;99.90;;;5.77;100.00;98960.31;4974676;28;20974;-82
2022/11/27 07:57:41;;;;;;;8.27;5.00;;;5.00;99.90;;;5.80;100.00;98965.22;4973602;28;20504;-83
2022/11/27 08:00:11;;;;;;;8.47;5.50;;;5.00;99.90;;;5.82;100.00;98967.72;4972834;28;20488;-83
2022/11/27 08:02:43;;;;;;;10.00;5.57;;;5.10;99.90;;;5.83;100.00;98962.38;4980248;28;20926;-82
2022/11/27 08:05:14;;;;;;;7.67;5.57;;;5.00;99.90;;;5.85;100.00;98957.06;4977013;28;20473;-82
2022/11/27 08:07:43;;;;;;;7.27;5.23;;;5.10;99.90;;;5.87;100.00;98952.56;4977013;28;20554;-83
2022/11/27 08:10:12;;;;;;;10.53;5.80;;;5.20;99.90;;;5.88;100.00;98954.22;4973698;28;20467;-83
2022/11/27 08:12:42;;;;;;;7.30;5.47;;;5.30;99.90;;;5.90;100.00;98952.31;4973914;28;20492;-83
2022/11/27 08:15:12;;;;;;;9.77;5.90;;;5.30;99.90;;;5.90;100.00;98949.72;4974556;28;20499;-82
2022/11/27 08:17:43;;;;;;;8.13;5.60;;;5.30;99.90;;;5.91;100.00;98946.16;4972482;28;20533;-83
2022/11/27 08:20:13;;;;;;;15.17;4.90;;;5.20;99.90;;;5.93;100.00;98939.06;4975845;28;20465;-83
2022/11/27 08:22:42;;;;;;;8.73;4.90;;;5.20;99.90;;;5.95;100.00;98937.16;4976165;28;20460;-83
2022/11/27 08:25:11;;;;;;;8.80;5.10;;;5.20;99.90;;;5.97;100.00;98943.03;4971710;28;20470;-83
2022/11/27 08:27:40;;;;;;;8.87;5.93;;;5.30;99.90;;;5.98;100.00;98939.47;4970983;28;20534;-83
2022/11/27 08:30:10;;;;;;;9.13;5.43;;;5.30;99.90;;;5.99;100.00;98933.34;4969571;28;20473;-83
2022/11/27 08:32:44;;;;;;;9.20;5.27;;;5.30;99.90;;;6.02;100.00;98930.47;4974073;28;20468;-83
2022/11/27 08:35:15;;;;;;;9.70;5.43;;;5.30;99.90;;;6.04;100.00;98923.34;4971640;28;20481;-83
2022/11/27 08:37:45;;;;;;;11.77;4.97;;;5.30;99.90;;;6.01;100.00;98923.63;4974155;28;20951;-82
2022/11/27 08:40:14;;;;;;;8.50;5.53;;;5.30;99.90;;;6.02;100.00;98912.28;4972178;28;20472;-82
2022/11/27 08:42:44;;;;;;;10.10;5.83;;;5.30;99.90;;;6.03;100.00;98898.34;4967323;28;20549;-83
2022/11/27 08:45:14;;;;;;;11.20;6.40;;;5.40;99.90;;;6.08;100.00;98886.59;4971361;28;20535;-84
2022/11/27 08:47:47;;;;;;;9.60;6.37;;;5.50;99.90;;;6.11;100.00;98882.09;4973007;28;20584;-82
2022/11/27 08:50:16;;;;;;;10.73;5.17;;;5.50;99.90;;;6.13;100.00;98880.19;4971447;28;20465;-84
2022/11/27 08:52:47;;;;;;;8.93;5.63;;;5.70;99.90;;;6.15;100.00;98875.66;4977351;28;20562;-83
2022/11/27 08:55:18;;;;;;;10.83;5.90;;;5.70;99.90;;;6.13;100.00;98891.38;4972155;28;20464;-83
2022/11/27 08:57:49;;;;;;;8.20;5.90;;;5.50;99.90;;;6.14;100.00;98885.25;4975437;28;20529;-83
2022/11/27 09:00:20;;;;;;;8.47;5.63;;;5.50;99.90;;;6.17;100.00;98889.31;4968794;28;20484;-82
2022/11/27 09:02:58;;;;;;;8.60;5.43;;;5.50;99.90;;;6.20;100.00;98883.84;4973752;28;20526;-83
2022/11/27 09:05:29;;;;;;;11.97;7.17;;;5.50;99.90;;;6.22;100.00;98885.34;4971981;28;20564;-83
2022/11/27 09:08:01;;;;;;;10.13;6.03;;;5.60;99.90;;;6.26;100.00;98891.09;4975390;28;20495;-83
2022/11/27 09:10:32;;;;;;;10.17;5.83;;;5.80;99.90;;;6.23;100.00;98891.38;4973946;28;20519;-83
2022/11/27 09:13:02;;;;;;;8.40;5.70;;;5.70;99.90;;;6.24;100.00;98891.25;4972663;28;21182;-82
2022/11/27 09:15:32;;;;;;;13.70;7.10;;;5.60;99.90;;;6.27;100.00;98893.56;4971137;28;20497;-83
2022/11/27 09:18:04;;;;;;;8.20;5.30;;;5.70;99.90;;;6.29;100.00;98904.63;4976754;28;20472;-83
2022/11/27 09:20:33;;;;;;;8.37;5.23;;;5.70;99.90;;;6.32;100.00;98909.53;4970716;28;20480;-83
2022/11/27 09:23:03;;;;;;;10.10;5.03;;;5.70;99.90;;;6.34;100.00;98897.22;4978088;28;20456;-83
2022/11/27 09:25:32;;;;;;;7.80;5.00;;;5.80;99.90;;;6.36;100.00;98892.72;4973193;28;20939;-82
2022/11/27 09:28:03;;;;;;;9.53;5.07;;;5.90;99.90;;;6.38;100.00;98883.03;4971597;28;20589;-83
2022/11/27 09:30:32;;;;;;;7.77;4.73;;;5.90;99.90;;;6.40;100.00;98890.66;4971041;28;20580;-82
2022/11/27 09:33:03;;;;;;;7.57;5.17;;;5.90;99.90;;;6.38;100.00;98890.81;4970685;28;20889;-83
2022/11/27 09:35:32;;;;;;;11.80;5.20;;;6.00;99.90;;;6.39;100.00;98905.41;4971321;28;20527;-81
2022/11/27 09:38:01;;;;;;;13.13;6.27;;;5.90;99.90;;;6.41;100.00;98920.88;4971483;28;20819;-82
2022/11/27 09:40:30;;;;;;;8.20;5.63;;;5.80;99.90;;;6.40;100.00;98914.84;4972046;28;20512;-83
2022/11/27 09:43:08;;;;;;;7.90;5.10;;;5.80;99.90;;;6.42;100.00;98905.13;4971673;28;20576;-83
2022/11/27 09:45:51;;;;;;;8.10;5.00;;;5.90;99.90;;;6.48;100.00;98893.38;4971710;28;20558;-82
2022/11/27 09:48:28;;;;;;;8.90;5.30;;;6.00;99.90;;;6.50;100.00;98875.84;4972907;28;20495;-83
2022/11/27 09:50:58;;;;;;;7.87;5.30;;;6.00;99.90;;;6.52;100.00;98869.59;4971568;28;20545;-83
2022/11/27 09:53:40;;;;;;;8.60;4.97;;;6.10;99.90;;;6.55;100.00;98852.88;4969982;28;20519;-82
2022/11/27 09:56:16;;;;;;;7.63;4.90;;;6.10;99.90;;;6.58;100.00;98852.59;4967242;28;20484;-82
2022/11/27 09:58:55;;;;;;;7.73;5.00;;;6.20;99.90;;;6.59;100.00;98849.84;4974023;28;20499;-83
2022/11/27 10:01:29;;;;;;;7.83;4.60;;;6.20;99.90;;;6.61;100.00;98849.72;4971332;28;20512;-83
2022/11/27 10:04:14;;;;;;;8.00;4.53;;;6.20;99.90;;;6.61;100.00;98843.69;4973163;28;20477;-83
2022/11/27 10:07:12;;;;;;;7.40;5.20;;;6.20;99.90;;;6.62;100.00;98840.16;4971476;28;20531;-83
2022/11/27 10:10:21;;;;;;;7.87;4.80;;;6.30;99.90;;;6.62;100.00;98840.16;4970510;28;20557;-83
2022/11/27 10:13:05;;;;;;;10.00;5.03;;;6.20;99.90;;;6.67;100.00;98838.75;4969241;28;20462;-83
2022/11/27 10:15:43;;;;;;;7.13;5.13;;;6.30;99.90;;;6.67;100.00;98824.94;4971665;28;20507;-83
2022/11/27 10:18:27;;;;;;;7.73;4.50;;;6.30;99.90;;;6.68;100.00;98827.41;4971455;28;20463;-83
2022/11/27 10:21:09;;;;;;;8.23;4.57;;;6.30;99.90;;;6.73;100.00;98826.97;4975051;28;20849;-82
2022/11/27 10:23:51;;;;;;;8.93;4.80;;;6.40;99.90;;;6.76;100.00;98826.69;4972282;28;21034;-82
2022/11/27 10:26:29;;;;;;;6.47;4.23;;;6.40;99.90;;;6.78;100.00;98824.75;4973077;28;20514;-83
2022/11/27 10:29:10;;;;;;;8.27;5.13;;;6.40;99.90;;;6.80;100.00;98812.44;4975907;28;20557;-83
2022/11/27 10:31:48;;;;;;;9.50;5.33;;;6.40;99.90;;;6.83;100.00;98794.78;4972858;28;20875;-83
2022/11/27 10:34:34;;;;;;;6.67;4.27;;;6.50;99.90;;;6.87;100.00;98790.13;4966802;28;20467;-83
2022/11/27 10:37:15;;;;;;;7.07;4.00;;;6.50;99.90;;;6.90;100.00;98787.22;4981296;28;20554;-82
2022/11/27 10:39:53;;;;;;;5.90;4.30;;;6.50;99.90;;;6.95;100.00;98777.19;4971318;28;20478;-82
2022/11/27 10:42:32;;;;;;;7.23;4.20;;;6.60;99.90;;;7.01;100.00;98768.81;4971423;28;20952;-83
2022/11/27 10:45:05;;;;;;;7.63;4.70;;;6.70;99.90;;;7.02;100.00;98773.84;4970615;28;20469;-83
2022/11/27 10:47:36;;;;;;;8.30;4.63;;;6.70;99.90;;;7.05;100.00;98783.97;4974496;28;20530;-83